sensor_id;sensor_type;location;lat;lon;timestamp;P1;durP1;ratioP1;P2;durP2;ratioP2
58615;SDS011;44385;51.992;4.206;2022-12-18T00:01:56;118.32;;;50.45;;
58615;SDS011;44385;51.992;4.206;2022-12-18T00:04:23;120.75;;;53.42;;
58615;SDS011;44385;51.992;4.206;2022-12-18T00:06:50;128.45;;;52.17;;
58615;SDS011;44385;51.992;4.206;2022-12-18T00:09:16;140.85;;;55.72;;
58615;SDS011;44385;51.992;4.206;2022-12-18T00:11:43;142.13;;;57.00;;
58615;SDS011;44385;51.992;4.206;2022-12-18T00:14:09;156.70;;;57.75;;
58615;SDS011;44385;51.992;4.206;2022-12-18T00:16:38;179.40;;;66.68;;
58615;SDS011;44385;51.992;4.206;2022-12-18T00:19:05;205.20;;;70.82;;
58615;SDS011;44385;51.992;4.206;2022-12-18T00:21:33;148.60;;;59.22;;
58615;SDS011;44385;51.992;4.206;2022-12-18T00:24:00;160.68;;;62.08;;
58615;SDS011;44385;51.992;4.206;2022-12-18T00:26:27;154.32;;;59.88;;
58615;SDS011;44385;51.992;4.206;2022-12-18T00:28:53;137.48;;;55.75;;
58615;SDS011;44385;51.992;4.206;2022-12-18T00:31:22;141.80;;;56.42;;
58615;SDS011;44385;51.992;4.206;2022-12-18T00:33:50;144.48;;;56.92;;
58615;SDS011;44385;51.992;4.206;2022-12-18T00:36:17;140.27;;;55.15;;
58615;SDS011;44385;51.992;4.206;2022-12-18T00:38:43;134.95;;;54.38;;
58615;SDS011;44385;51.992;4.206;2022-12-18T00:41:10;131.00;;;54.67;;
58615;SDS011;44385;51.992;4.206;2022-12-18T00:43:37;140.10;;;55.60;;
58615;SDS011;44385;51.992;4.206;2022-12-18T00:46:03;125.95;;;51.58;;
58615;SDS011;44385;51.992;4.206;2022-12-18T00:48:30;143.60;;;55.92;;
58615;SDS011;44385;51.992;4.206;2022-12-18T00:50:58;148.23;;;57.00;;
58615;SDS011;44385;51.992;4.206;2022-12-18T00:53:24;144.38;;;55.35;;
58615;SDS011;44385;51.992;4.206;2022-12-18T00:55:51;139.95;;;52.15;;
58615;SDS011;44385;51.992;4.206;2022-12-18T00:58:17;129.50;;;51.30;;
58615;SDS011;44385;51.992;4.206;2022-12-18T01:00:43;134.43;;;53.40;;
58615;SDS011;44385;51.992;4.206;2022-12-18T01:03:11;132.32;;;51.78;;
58615;SDS011;44385;51.992;4.206;2022-12-18T01:05:38;123.60;;;52.42;;
58615;SDS011;44385;51.992;4.206;2022-12-18T01:08:06;119.30;;;50.45;;
58615;SDS011;44385;51.992;4.206;2022-12-18T01:10:33;140.30;;;55.38;;
58615;SDS011;44385;51.992;4.206;2022-12-18T01:12:59;127.28;;;51.38;;
58615;SDS011;44385;51.992;4.206;2022-12-18T01:15:26;119.03;;;50.88;;
58615;SDS011;44385;51.992;4.206;2022-12-18T01:17:52;125.82;;;53.63;;
58615;SDS011;44385;51.992;4.206;2022-12-18T01:20:18;118.20;;;50.53;;
58615;SDS011;44385;51.992;4.206;2022-12-18T01:22:45;114.82;;;48.50;;
58615;SDS011;44385;51.992;4.206;2022-12-18T01:25:13;118.40;;;50.03;;
58615;SDS011;44385;51.992;4.206;2022-12-18T01:27:39;117.88;;;49.35;;
58615;SDS011;44385;51.992;4.206;2022-12-18T01:30:06;108.15;;;47.58;;
58615;SDS011;44385;51.992;4.206;2022-12-18T01:32:33;103.15;;;44.95;;
58615;SDS011;44385;51.992;4.206;2022-12-18T01:34:59;105.63;;;46.22;;
58615;SDS011;44385;51.992;4.206;2022-12-18T01:37:25;103.55;;;44.75;;
58615;SDS011;44385;51.992;4.206;2022-12-18T01:39:52;96.28;;;44.15;;
58615;SDS011;44385;51.992;4.206;2022-12-18T01:42:21;91.90;;;41.42;;
58615;SDS011;44385;51.992;4.206;2022-12-18T01:44:53;100.63;;;44.38;;
58615;SDS011;44385;51.992;4.206;2022-12-18T01:47:21;102.43;;;43.08;;
58615;SDS011;44385;51.992;4.206;2022-12-18T01:49:49;102.93;;;43.38;;
58615;SDS011;44385;51.992;4.206;2022-12-18T01:52:16;97.95;;;43.60;;
58615;SDS011;44385;51.992;4.206;2022-12-18T01:54:43;101.25;;;46.17;;
58615;SDS011;44385;51.992;4.206;2022-12-18T01:57:09;99.57;;;43.58;;
58615;SDS011;44385;51.992;4.206;2022-12-18T01:59:37;114.38;;;47.45;;
58615;SDS011;44385;51.992;4.206;2022-12-18T02:04:33;120.75;;;46.97;;
58615;SDS011;44385;51.992;4.206;2022-12-18T02:07:00;115.15;;;47.47;;
58615;SDS011;44385;51.992;4.206;2022-12-18T02:09:31;112.75;;;46.20;;
58615;SDS011;44385;51.992;4.206;2022-12-18T02:11:59;107.57;;;45.90;;
58615;SDS011;44385;51.992;4.206;2022-12-18T02:14:31;115.88;;;46.35;;
58615;SDS011;44385;51.992;4.206;2022-12-18T02:17:04;114.25;;;47.08;;
58615;SDS011;44385;51.992;4.206;2022-12-18T02:19:47;118.45;;;48.22;;
58615;SDS011;44385;51.992;4.206;2022-12-18T02:22:21;107.72;;;47.47;;
58615;SDS011;44385;51.992;4.206;2022-12-18T02:24:54;115.75;;;47.30;;
58615;SDS011;44385;51.992;4.206;2022-12-18T02:27:27;109.15;;;47.28;;
58615;SDS011;44385;51.992;4.206;2022-12-18T02:29:55;103.40;;;44.75;;
58615;SDS011;44385;51.992;4.206;2022-12-18T02:32:24;107.00;;;44.80;;
58615;SDS011;44385;51.992;4.206;2022-12-18T02:34:51;115.65;;;48.65;;
58615;SDS011;44385;51.992;4.206;2022-12-18T02:37:20;103.93;;;44.20;;
58615;SDS011;44385;51.992;4.206;2022-12-18T02:39:48;107.85;;;46.63;;
58615;SDS011;44385;51.992;4.206;2022-12-18T02:42:15;114.65;;;44.33;;
58615;SDS011;44385;51.992;4.206;2022-12-18T02:44:44;114.03;;;43.67;;
58615;SDS011;44385;51.992;4.206;2022-12-18T02:47:11;101.43;;;42.92;;
58615;SDS011;44385;51.992;4.206;2022-12-18T02:49:40;110.15;;;44.78;;
58615;SDS011;44385;51.992;4.206;2022-12-18T02:52:12;100.88;;;43.95;;
58615;SDS011;44385;51.992;4.206;2022-12-18T02:54:48;95.20;;;42.03;;
58615;SDS011;44385;51.992;4.206;2022-12-18T02:57:19;95.15;;;40.75;;
58615;SDS011;44385;51.992;4.206;2022-12-18T02:59:53;94.68;;;40.53;;
58615;SDS011;44385;51.992;4.206;2022-12-18T03:02:23;96.60;;;39.67;;
58615;SDS011;44385;51.992;4.206;2022-12-18T03:04:54;103.45;;;40.10;;
58615;SDS011;44385;51.992;4.206;2022-12-18T03:07:25;92.30;;;39.63;;
58615;SDS011;44385;51.992;4.206;2022-12-18T03:12:18;87.00;;;37.35;;
58615;SDS011;44385;51.992;4.206;2022-12-18T03:14:51;86.57;;;37.55;;
58615;SDS011;44385;51.992;4.206;2022-12-18T03:17:20;85.47;;;36.53;;
58615;SDS011;44385;51.992;4.206;2022-12-18T03:19:49;82.50;;;35.95;;
58615;SDS011;44385;51.992;4.206;2022-12-18T03:22:17;89.78;;;36.72;;
58615;SDS011;44385;51.992;4.206;2022-12-18T03:24:44;89.32;;;37.33;;
58615;SDS011;44385;51.992;4.206;2022-12-18T03:27:12;89.57;;;39.03;;
58615;SDS011;44385;51.992;4.206;2022-12-18T03:29:42;88.57;;;36.95;;
58615;SDS011;44385;51.992;4.206;2022-12-18T03:32:12;93.13;;;40.58;;
58615;SDS011;44385;51.992;4.206;2022-12-18T03:34:41;92.22;;;39.90;;
58615;SDS011;44385;51.992;4.206;2022-12-18T03:37:08;86.82;;;37.47;;
58615;SDS011;44385;51.992;4.206;2022-12-18T03:39:34;97.43;;;41.03;;
58615;SDS011;44385;51.992;4.206;2022-12-18T03:42:02;92.40;;;39.47;;
58615;SDS011;44385;51.992;4.206;2022-12-18T03:44:31;86.55;;;39.95;;
58615;SDS011;44385;51.992;4.206;2022-12-18T03:49:32;92.70;;;39.22;;
58615;SDS011;44385;51.992;4.206;2022-12-18T03:52:01;92.20;;;41.10;;
58615;SDS011;44385;51.992;4.206;2022-12-18T03:54:29;92.40;;;39.22;;
58615;SDS011;44385;51.992;4.206;2022-12-18T03:56:57;87.25;;;37.55;;
58615;SDS011;44385;51.992;4.206;2022-12-18T03:59:24;82.57;;;38.10;;
58615;SDS011;44385;51.992;4.206;2022-12-18T04:01:51;84.00;;;37.72;;
58615;SDS011;44385;51.992;4.206;2022-12-18T04:04:18;82.40;;;37.67;;
58615;SDS011;44385;51.992;4.206;2022-12-18T04:06:47;79.57;;;35.80;;
58615;SDS011;44385;51.992;4.206;2022-12-18T04:09:15;80.03;;;37.13;;
58615;SDS011;44385;51.992;4.206;2022-12-18T04:11:42;73.20;;;35.78;;
58615;SDS011;44385;51.992;4.206;2022-12-18T04:14:09;81.07;;;38.80;;
58615;SDS011;44385;51.992;4.206;2022-12-18T04:16:35;76.63;;;35.13;;
58615;SDS011;44385;51.992;4.206;2022-12-18T04:19:02;79.90;;;35.13;;
58615;SDS011;44385;51.992;4.206;2022-12-18T04:21:29;76.97;;;35.60;;
58615;SDS011;44385;51.992;4.206;2022-12-18T04:23:56;70.25;;;35.28;;
58615;SDS011;44385;51.992;4.206;2022-12-18T04:26:23;75.65;;;33.85;;
58615;SDS011;44385;51.992;4.206;2022-12-18T04:28:49;68.80;;;32.53;;
58615;SDS011;44385;51.992;4.206;2022-12-18T04:31:16;65.95;;;33.42;;
58615;SDS011;44385;51.992;4.206;2022-12-18T04:33:42;68.38;;;33.55;;
58615;SDS011;44385;51.992;4.206;2022-12-18T04:36:08;64.07;;;31.92;;
58615;SDS011;44385;51.992;4.206;2022-12-18T04:38:35;69.85;;;32.25;;
58615;SDS011;44385;51.992;4.206;2022-12-18T04:41:03;69.60;;;32.30;;
58615;SDS011;44385;51.992;4.206;2022-12-18T04:43:29;66.63;;;32.17;;
58615;SDS011;44385;51.992;4.206;2022-12-18T04:46:01;66.28;;;32.35;;
58615;SDS011;44385;51.992;4.206;2022-12-18T04:50:53;68.95;;;33.92;;
58615;SDS011;44385;51.992;4.206;2022-12-18T04:53:20;70.72;;;31.50;;
58615;SDS011;44385;51.992;4.206;2022-12-18T04:55:46;66.72;;;33.38;;
58615;SDS011;44385;51.992;4.206;2022-12-18T04:58:14;67.35;;;33.28;;
58615;SDS011;44385;51.992;4.206;2022-12-18T05:00:41;69.72;;;31.23;;
58615;SDS011;44385;51.992;4.206;2022-12-18T05:03:07;77.93;;;34.05;;
58615;SDS011;44385;51.992;4.206;2022-12-18T05:05:34;68.32;;;33.05;;
58615;SDS011;44385;51.992;4.206;2022-12-18T05:08:00;69.45;;;34.10;;
58615;SDS011;44385;51.992;4.206;2022-12-18T05:10:27;67.70;;;32.10;;
58615;SDS011;44385;51.992;4.206;2022-12-18T05:12:55;73.00;;;33.13;;
58615;SDS011;44385;51.992;4.206;2022-12-18T05:15:25;72.38;;;32.92;;
58615;SDS011;44385;51.992;4.206;2022-12-18T05:17:52;67.70;;;32.92;;
58615;SDS011;44385;51.992;4.206;2022-12-18T05:20:18;69.75;;;32.13;;
58615;SDS011;44385;51.992;4.206;2022-12-18T05:22:45;70.38;;;32.22;;
58615;SDS011;44385;51.992;4.206;2022-12-18T05:25:11;63.63;;;31.42;;
58615;SDS011;44385;51.992;4.206;2022-12-18T05:27:37;65.63;;;32.58;;
58615;SDS011;44385;51.992;4.206;2022-12-18T05:30:04;71.63;;;33.95;;
58615;SDS011;44385;51.992;4.206;2022-12-18T05:32:33;69.35;;;32.45;;
58615;SDS011;44385;51.992;4.206;2022-12-18T05:35:00;62.55;;;32.60;;
58615;SDS011;44385;51.992;4.206;2022-12-18T05:37:26;62.33;;;30.35;;
58615;SDS011;44385;51.992;4.206;2022-12-18T05:39:52;66.28;;;32.75;;
58615;SDS011;44385;51.992;4.206;2022-12-18T05:42:19;61.53;;;29.48;;
58615;SDS011;44385;51.992;4.206;2022-12-18T05:44:46;60.25;;;29.45;;
58615;SDS011;44385;51.992;4.206;2022-12-18T05:47:12;63.72;;;30.38;;
58615;SDS011;44385;51.992;4.206;2022-12-18T05:49:40;63.20;;;29.60;;
58615;SDS011;44385;51.992;4.206;2022-12-18T05:52:06;58.53;;;28.15;;
58615;SDS011;44385;51.992;4.206;2022-12-18T05:54:33;58.90;;;28.90;;
58615;SDS011;44385;51.992;4.206;2022-12-18T05:57:00;52.17;;;27.00;;
58615;SDS011;44385;51.992;4.206;2022-12-18T05:59:26;56.55;;;27.55;;
58615;SDS011;44385;51.992;4.206;2022-12-18T06:01:53;60.80;;;28.15;;
58615;SDS011;44385;51.992;4.206;2022-12-18T06:04:20;59.88;;;29.80;;
58615;SDS011;44385;51.992;4.206;2022-12-18T06:06:48;59.10;;;28.85;;
58615;SDS011;44385;51.992;4.206;2022-12-18T06:09:14;60.90;;;29.50;;
58615;SDS011;44385;51.992;4.206;2022-12-18T06:11:40;60.28;;;29.02;;
58615;SDS011;44385;51.992;4.206;2022-12-18T06:14:08;55.15;;;28.40;;
58615;SDS011;44385;51.992;4.206;2022-12-18T06:16:34;55.45;;;27.55;;
58615;SDS011;44385;51.992;4.206;2022-12-18T06:19:02;59.60;;;28.92;;
58615;SDS011;44385;51.992;4.206;2022-12-18T06:21:29;59.97;;;28.52;;
58615;SDS011;44385;51.992;4.206;2022-12-18T06:23:57;57.10;;;29.35;;
58615;SDS011;44385;51.992;4.206;2022-12-18T06:26:24;59.67;;;27.80;;
58615;SDS011;44385;51.992;4.206;2022-12-18T06:28:50;57.33;;;28.08;;
58615;SDS011;44385;51.992;4.206;2022-12-18T06:31:16;56.25;;;29.42;;
58615;SDS011;44385;51.992;4.206;2022-12-18T06:33:43;58.80;;;30.02;;
58615;SDS011;44385;51.992;4.206;2022-12-18T06:36:10;63.05;;;30.02;;
58615;SDS011;44385;51.992;4.206;2022-12-18T06:38:37;60.13;;;29.58;;
58615;SDS011;44385;51.992;4.206;2022-12-18T06:41:07;61.13;;;29.13;;
58615;SDS011;44385;51.992;4.206;2022-12-18T06:46:00;60.10;;;29.30;;
58615;SDS011;44385;51.992;4.206;2022-12-18T06:48:27;61.03;;;29.10;;
58615;SDS011;44385;51.992;4.206;2022-12-18T06:50:55;58.85;;;29.05;;
58615;SDS011;44385;51.992;4.206;2022-12-18T06:53:21;57.95;;;29.67;;
58615;SDS011;44385;51.992;4.206;2022-12-18T06:55:48;56.55;;;28.48;;
58615;SDS011;44385;51.992;4.206;2022-12-18T06:58:15;56.30;;;28.33;;
58615;SDS011;44385;51.992;4.206;2022-12-18T07:00:42;57.50;;;29.48;;
58615;SDS011;44385;51.992;4.206;2022-12-18T07:03:08;52.47;;;28.67;;
58615;SDS011;44385;51.992;4.206;2022-12-18T07:05:39;60.33;;;28.38;;
58615;SDS011;44385;51.992;4.206;2022-12-18T07:08:05;59.33;;;27.85;;
58615;SDS011;44385;51.992;4.206;2022-12-18T07:10:34;56.58;;;28.95;;
58615;SDS011;44385;51.992;4.206;2022-12-18T07:13:06;53.78;;;26.77;;
58615;SDS011;44385;51.992;4.206;2022-12-18T07:15:34;53.58;;;27.10;;
58615;SDS011;44385;51.992;4.206;2022-12-18T07:18:01;53.90;;;28.98;;
58615;SDS011;44385;51.992;4.206;2022-12-18T07:20:27;52.70;;;26.85;;
58615;SDS011;44385;51.992;4.206;2022-12-18T07:22:55;54.63;;;26.42;;
58615;SDS011;44385;51.992;4.206;2022-12-18T07:25:21;53.95;;;25.20;;
58615;SDS011;44385;51.992;4.206;2022-12-18T07:27:47;47.63;;;26.20;;
58615;SDS011;44385;51.992;4.206;2022-12-18T07:30:14;46.10;;;25.45;;
58615;SDS011;44385;51.992;4.206;2022-12-18T07:32:41;48.28;;;26.38;;
58615;SDS011;44385;51.992;4.206;2022-12-18T07:35:08;45.80;;;26.08;;
58615;SDS011;44385;51.992;4.206;2022-12-18T07:37:34;48.17;;;25.50;;
58615;SDS011;44385;51.992;4.206;2022-12-18T07:40:01;51.90;;;25.65;;
58615;SDS011;44385;51.992;4.206;2022-12-18T07:42:27;45.05;;;24.42;;
58615;SDS011;44385;51.992;4.206;2022-12-18T07:44:57;47.40;;;26.03;;
58615;SDS011;44385;51.992;4.206;2022-12-18T07:47:23;45.75;;;22.98;;
58615;SDS011;44385;51.992;4.206;2022-12-18T07:49:51;46.40;;;22.23;;
58615;SDS011;44385;51.992;4.206;2022-12-18T07:52:18;41.53;;;22.20;;
58615;SDS011;44385;51.992;4.206;2022-12-18T07:54:44;37.95;;;22.30;;
58615;SDS011;44385;51.992;4.206;2022-12-18T07:57:10;40.20;;;23.35;;
58615;SDS011;44385;51.992;4.206;2022-12-18T07:59:39;39.97;;;23.00;;
58615;SDS011;44385;51.992;4.206;2022-12-18T08:02:05;41.85;;;22.70;;
58615;SDS011;44385;51.992;4.206;2022-12-18T08:04:33;40.03;;;21.67;;
58615;SDS011;44385;51.992;4.206;2022-12-18T08:07:03;38.20;;;21.10;;
58615;SDS011;44385;51.992;4.206;2022-12-18T08:09:30;39.47;;;21.75;;
58615;SDS011;44385;51.992;4.206;2022-12-18T08:11:56;34.67;;;21.48;;
58615;SDS011;44385;51.992;4.206;2022-12-18T08:14:22;40.22;;;21.35;;
58615;SDS011;44385;51.992;4.206;2022-12-18T08:16:49;37.33;;;20.30;;
58615;SDS011;44385;51.992;4.206;2022-12-18T08:19:15;36.97;;;20.77;;
58615;SDS011;44385;51.992;4.206;2022-12-18T08:21:42;32.95;;;19.20;;
58615;SDS011;44385;51.992;4.206;2022-12-18T08:24:09;35.08;;;20.02;;
58615;SDS011;44385;51.992;4.206;2022-12-18T08:26:36;33.92;;;18.98;;
58615;SDS011;44385;51.992;4.206;2022-12-18T08:29:02;36.55;;;19.45;;
58615;SDS011;44385;51.992;4.206;2022-12-18T08:31:29;30.42;;;18.08;;
58615;SDS011;44385;51.992;4.206;2022-12-18T08:33:56;34.25;;;19.63;;
58615;SDS011;44385;51.992;4.206;2022-12-18T08:36:23;35.17;;;19.45;;
58615;SDS011;44385;51.992;4.206;2022-12-18T08:38:49;37.35;;;18.75;;
58615;SDS011;44385;51.992;4.206;2022-12-18T08:41:17;34.53;;;18.70;;
58615;SDS011;44385;51.992;4.206;2022-12-18T08:43:44;32.05;;;17.70;;
58615;SDS011;44385;51.992;4.206;2022-12-18T08:46:31;35.38;;;20.58;;
58615;SDS011;44385;51.992;4.206;2022-12-18T08:48:59;32.33;;;18.88;;
58615;SDS011;44385;51.992;4.206;2022-12-18T08:51:25;35.78;;;19.55;;
58615;SDS011;44385;51.992;4.206;2022-12-18T08:53:51;27.42;;;17.00;;
58615;SDS011;44385;51.992;4.206;2022-12-18T08:56:19;29.48;;;18.05;;
58615;SDS011;44385;51.992;4.206;2022-12-18T08:58:45;29.38;;;18.38;;
58615;SDS011;44385;51.992;4.206;2022-12-18T09:01:12;31.88;;;18.55;;
58615;SDS011;44385;51.992;4.206;2022-12-18T09:03:42;28.13;;;17.30;;
58615;SDS011;44385;51.992;4.206;2022-12-18T09:06:14;30.38;;;18.40;;
58615;SDS011;44385;51.992;4.206;2022-12-18T09:08:41;31.17;;;17.75;;
58615;SDS011;44385;51.992;4.206;2022-12-18T09:11:10;29.60;;;18.52;;
58615;SDS011;44385;51.992;4.206;2022-12-18T09:13:39;29.08;;;18.27;;
58615;SDS011;44385;51.992;4.206;2022-12-18T09:16:05;34.95;;;20.20;;
58615;SDS011;44385;51.992;4.206;2022-12-18T09:18:32;33.58;;;19.02;;
58615;SDS011;44385;51.992;4.206;2022-12-18T09:20:59;32.58;;;18.75;;
58615;SDS011;44385;51.992;4.206;2022-12-18T09:23:25;28.02;;;18.27;;
58615;SDS011;44385;51.992;4.206;2022-12-18T09:25:52;28.58;;;17.02;;
58615;SDS011;44385;51.992;4.206;2022-12-18T09:28:24;29.30;;;17.75;;
58615;SDS011;44385;51.992;4.206;2022-12-18T09:30:52;29.35;;;18.35;;
58615;SDS011;44385;51.992;4.206;2022-12-18T09:33:18;30.92;;;17.70;;
58615;SDS011;44385;51.992;4.206;2022-12-18T09:35:45;26.35;;;16.80;;
58615;SDS011;44385;51.992;4.206;2022-12-18T09:38:12;30.33;;;17.38;;
58615;SDS011;44385;51.992;4.206;2022-12-18T09:40:40;27.73;;;17.90;;
58615;SDS011;44385;51.992;4.206;2022-12-18T09:43:10;26.83;;;16.15;;
58615;SDS011;44385;51.992;4.206;2022-12-18T09:45:41;31.08;;;16.95;;
58615;SDS011;44385;51.992;4.206;2022-12-18T09:48:10;27.67;;;16.92;;
58615;SDS011;44385;51.992;4.206;2022-12-18T09:50:40;28.27;;;16.30;;
58615;SDS011;44385;51.992;4.206;2022-12-18T09:53:08;24.85;;;16.27;;
58615;SDS011;44385;51.992;4.206;2022-12-18T09:55:38;25.08;;;16.02;;
58615;SDS011;44385;51.992;4.206;2022-12-18T09:58:06;26.27;;;15.68;;
58615;SDS011;44385;51.992;4.206;2022-12-18T10:00:38;24.95;;;16.23;;
58615;SDS011;44385;51.992;4.206;2022-12-18T10:03:08;26.88;;;16.35;;
58615;SDS011;44385;51.992;4.206;2022-12-18T10:05:37;27.05;;;15.30;;
58615;SDS011;44385;51.992;4.206;2022-12-18T10:08:08;25.38;;;15.98;;
58615;SDS011;44385;51.992;4.206;2022-12-18T10:10:37;21.05;;;14.57;;
58615;SDS011;44385;51.992;4.206;2022-12-18T10:13:07;26.17;;;16.10;;
58615;SDS011;44385;51.992;4.206;2022-12-18T10:15:36;27.00;;;14.90;;
58615;SDS011;44385;51.992;4.206;2022-12-18T10:18:10;25.02;;;15.45;;
58615;SDS011;44385;51.992;4.206;2022-12-18T10:20:43;25.75;;;15.52;;
58615;SDS011;44385;51.992;4.206;2022-12-18T10:23:11;21.17;;;13.90;;
58615;SDS011;44385;51.992;4.206;2022-12-18T10:25:50;25.95;;;14.50;;
58615;SDS011;44385;51.992;4.206;2022-12-18T10:28:20;25.38;;;14.45;;
58615;SDS011;44385;51.992;4.206;2022-12-18T10:30:46;21.58;;;12.98;;
58615;SDS011;44385;51.992;4.206;2022-12-18T10:33:13;24.08;;;14.52;;
58615;SDS011;44385;51.992;4.206;2022-12-18T10:35:45;22.88;;;14.05;;
58615;SDS011;44385;51.992;4.206;2022-12-18T10:38:21;23.30;;;13.73;;
58615;SDS011;44385;51.992;4.206;2022-12-18T10:40:48;20.70;;;13.73;;
58615;SDS011;44385;51.992;4.206;2022-12-18T10:43:16;22.00;;;13.05;;
58615;SDS011;44385;51.992;4.206;2022-12-18T10:45:56;22.40;;;14.90;;
58615;SDS011;44385;51.992;4.206;2022-12-18T10:48:24;21.40;;;12.68;;
58615;SDS011;44385;51.992;4.206;2022-12-18T10:50:52;22.08;;;14.35;;
58615;SDS011;44385;51.992;4.206;2022-12-18T10:53:22;18.92;;;12.27;;
58615;SDS011;44385;51.992;4.206;2022-12-18T10:55:48;19.20;;;12.52;;
58615;SDS011;44385;51.992;4.206;2022-12-18T10:58:22;20.42;;;13.27;;
58615;SDS011;44385;51.992;4.206;2022-12-18T11:01:01;19.42;;;12.85;;
58615;SDS011;44385;51.992;4.206;2022-12-18T11:03:29;19.02;;;12.95;;
58615;SDS011;44385;51.992;4.206;2022-12-18T11:06:02;26.05;;;14.05;;
58615;SDS011;44385;51.992;4.206;2022-12-18T11:08:29;18.58;;;13.38;;
58615;SDS011;44385;51.992;4.206;2022-12-18T11:10:55;21.00;;;13.25;;
58615;SDS011;44385;51.992;4.206;2022-12-18T11:13:22;22.58;;;12.73;;
58615;SDS011;44385;51.992;4.206;2022-12-18T11:15:49;21.15;;;12.63;;
58615;SDS011;44385;51.992;4.206;2022-12-18T11:18:16;20.02;;;12.75;;
58615;SDS011;44385;51.992;4.206;2022-12-18T11:20:43;19.90;;;12.82;;
58615;SDS011;44385;51.992;4.206;2022-12-18T11:23:17;22.38;;;12.85;;
58615;SDS011;44385;51.992;4.206;2022-12-18T11:25:50;16.50;;;12.25;;
58615;SDS011;44385;51.992;4.206;2022-12-18T11:28:25;19.45;;;12.70;;
58615;SDS011;44385;51.992;4.206;2022-12-18T11:30:52;22.73;;;13.07;;
58615;SDS011;44385;51.992;4.206;2022-12-18T11:33:34;19.23;;;11.60;;
58615;SDS011;44385;51.992;4.206;2022-12-18T11:36:02;22.40;;;11.90;;
58615;SDS011;44385;51.992;4.206;2022-12-18T11:38:31;16.83;;;10.73;;
58615;SDS011;44385;51.992;4.206;2022-12-18T11:40:59;16.77;;;11.50;;
58615;SDS011;44385;51.992;4.206;2022-12-18T11:43:28;19.43;;;12.63;;
58615;SDS011;44385;51.992;4.206;2022-12-18T11:45:56;17.77;;;11.25;;
58615;SDS011;44385;51.992;4.206;2022-12-18T11:48:25;17.77;;;11.65;;
58615;SDS011;44385;51.992;4.206;2022-12-18T11:50:53;18.55;;;11.60;;
58615;SDS011;44385;51.992;4.206;2022-12-18T11:53:21;18.90;;;11.75;;
58615;SDS011;44385;51.992;4.206;2022-12-18T11:58:34;20.35;;;10.75;;
58615;SDS011;44385;51.992;4.206;2022-12-18T12:01:07;16.23;;;11.48;;
58615;SDS011;44385;51.992;4.206;2022-12-18T12:03:44;18.75;;;11.48;;
58615;SDS011;44385;51.992;4.206;2022-12-18T12:06:14;19.30;;;11.95;;
58615;SDS011;44385;51.992;4.206;2022-12-18T12:08:48;19.10;;;11.88;;
58615;SDS011;44385;51.992;4.206;2022-12-18T12:11:18;17.33;;;11.70;;
58615;SDS011;44385;51.992;4.206;2022-12-18T12:13:50;19.50;;;11.70;;
58615;SDS011;44385;51.992;4.206;2022-12-18T12:16:18;20.80;;;11.85;;
58615;SDS011;44385;51.992;4.206;2022-12-18T12:19:02;17.23;;;11.68;;
58615;SDS011;44385;51.992;4.206;2022-12-18T12:21:35;18.83;;;11.48;;
58615;SDS011;44385;51.992;4.206;2022-12-18T12:24:04;17.52;;;11.88;;
58615;SDS011;44385;51.992;4.206;2022-12-18T12:26:39;18.30;;;11.90;;
58615;SDS011;44385;51.992;4.206;2022-12-18T12:29:16;19.17;;;12.70;;
58615;SDS011;44385;51.992;4.206;2022-12-18T12:31:53;21.35;;;12.93;;
58615;SDS011;44385;51.992;4.206;2022-12-18T12:34:22;16.83;;;12.38;;
58615;SDS011;44385;51.992;4.206;2022-12-18T12:36:57;21.27;;;12.85;;
58615;SDS011;44385;51.992;4.206;2022-12-18T12:39:28;18.77;;;12.07;;
58615;SDS011;44385;51.992;4.206;2022-12-18T12:41:56;20.50;;;13.07;;
58615;SDS011;44385;51.992;4.206;2022-12-18T12:44:42;22.13;;;13.27;;
58615;SDS011;44385;51.992;4.206;2022-12-18T12:47:11;20.40;;;13.55;;
58615;SDS011;44385;51.992;4.206;2022-12-18T12:49:40;21.70;;;12.57;;
58615;SDS011;44385;51.992;4.206;2022-12-18T12:52:14;23.50;;;12.55;;
58615;SDS011;44385;51.992;4.206;2022-12-18T12:54:41;21.52;;;12.98;;
58615;SDS011;44385;51.992;4.206;2022-12-18T12:57:09;20.40;;;11.73;;
58615;SDS011;44385;51.992;4.206;2022-12-18T12:59:39;18.92;;;11.45;;
58615;SDS011;44385;51.992;4.206;2022-12-18T13:02:14;19.40;;;13.10;;
58615;SDS011;44385;51.992;4.206;2022-12-18T13:04:41;18.45;;;12.65;;
58615;SDS011;44385;51.992;4.206;2022-12-18T13:07:10;21.13;;;12.98;;
58615;SDS011;44385;51.992;4.206;2022-12-18T13:12:21;17.63;;;11.88;;
58615;SDS011;44385;51.992;4.206;2022-12-18T13:15:11;22.58;;;12.93;;
58615;SDS011;44385;51.992;4.206;2022-12-18T13:17:40;19.42;;;12.45;;
58615;SDS011;44385;51.992;4.206;2022-12-18T13:20:07;19.70;;;12.20;;
58615;SDS011;44385;51.992;4.206;2022-12-18T13:22:34;20.58;;;12.98;;
58615;SDS011;44385;51.992;4.206;2022-12-18T13:25:01;19.48;;;12.98;;
58615;SDS011;44385;51.992;4.206;2022-12-18T13:33:38;19.63;;;12.60;;
58615;SDS011;44385;51.992;4.206;2022-12-18T13:36:09;21.15;;;12.80;;
58615;SDS011;44385;51.992;4.206;2022-12-18T13:38:38;18.58;;;11.60;;
58615;SDS011;44385;51.992;4.206;2022-12-18T13:41:15;20.50;;;11.35;;
58615;SDS011;44385;51.992;4.206;2022-12-18T13:43:47;19.42;;;12.02;;
58615;SDS011;44385;51.992;4.206;2022-12-18T13:46:18;19.75;;;12.23;;
58615;SDS011;44385;51.992;4.206;2022-12-18T13:48:50;22.02;;;12.70;;
58615;SDS011;44385;51.992;4.206;2022-12-18T13:51:17;19.92;;;13.10;;
58615;SDS011;44385;51.992;4.206;2022-12-18T13:53:44;18.38;;;12.88;;
58615;SDS011;44385;51.992;4.206;2022-12-18T13:56:15;18.23;;;12.60;;
58615;SDS011;44385;51.992;4.206;2022-12-18T13:58:43;21.83;;;13.93;;
58615;SDS011;44385;51.992;4.206;2022-12-18T14:01:20;19.35;;;11.15;;
58615;SDS011;44385;51.992;4.206;2022-12-18T14:03:47;22.00;;;12.75;;
58615;SDS011;44385;51.992;4.206;2022-12-18T14:06:15;23.00;;;13.20;;
58615;SDS011;44385;51.992;4.206;2022-12-18T14:08:42;20.67;;;13.13;;
58615;SDS011;44385;51.992;4.206;2022-12-18T14:11:17;18.90;;;11.93;;
58615;SDS011;44385;51.992;4.206;2022-12-18T14:13:44;21.00;;;13.55;;
58615;SDS011;44385;51.992;4.206;2022-12-18T14:16:12;21.38;;;13.95;;
58615;SDS011;44385;51.992;4.206;2022-12-18T14:18:42;22.65;;;13.40;;
58615;SDS011;44385;51.992;4.206;2022-12-18T14:23:37;28.60;;;17.02;;
58615;SDS011;44385;51.992;4.206;2022-12-18T14:26:19;23.23;;;13.82;;
58615;SDS011;44385;51.992;4.206;2022-12-18T14:28:46;22.75;;;13.57;;
58615;SDS011;44385;51.992;4.206;2022-12-18T14:31:16;21.52;;;14.75;;
58615;SDS011;44385;51.992;4.206;2022-12-18T14:33:43;23.52;;;14.95;;
58615;SDS011;44385;51.992;4.206;2022-12-18T14:36:13;27.17;;;17.60;;
58615;SDS011;44385;51.992;4.206;2022-12-18T14:38:42;36.88;;;29.98;;
58615;SDS011;44385;51.992;4.206;2022-12-18T14:41:10;73.78;;;53.75;;
58615;SDS011;44385;51.992;4.206;2022-12-18T14:43:37;80.20;;;52.20;;
58615;SDS011;44385;51.992;4.206;2022-12-18T14:46:04;31.50;;;20.27;;
58615;SDS011;44385;51.992;4.206;2022-12-18T14:48:36;28.60;;;19.35;;
58615;SDS011;44385;51.992;4.206;2022-12-18T14:51:03;33.53;;;22.25;;
58615;SDS011;44385;51.992;4.206;2022-12-18T14:53:40;24.05;;;18.02;;